KPDX/PDX METAR and TAF weather

Enter ICAO airport designator
Station Type Date Time Source
KPDX METAR 2021/02/24 16:53 UTC NOAA

KPDX 241653Z 00000KT 9SM FEW006 SCT011 SCT020 04/02 A3059 RMK AO2 SLP359 T00390022


Station Type Date Time Source
KPDX Decoded METAR 2021/02/24 16:53 UTC NOAA

PORTLAND INTERNATIONAL AIRPORT, OR, United States (KPDX) 45-35N 122-36W 7M
Feb 24, 2021 - 11:53 AM EST / 2021.02.24 1653 UTC
Wind: Calm:0
Visibility: 9 mile(s):0
Sky conditions: partly cloudy
Temperature: 39.0 F (3.9 C)
Dew Point: 36.0 F (2.2 C)
Relative Humidity: 88%
Pressure (altimeter): 30.59 in. Hg (1035 hPa)
ob: KPDX 241653Z 00000KT 9SM FEW006 SCT011 SCT020 04/02 A3059 RMK AO2 SLP359 T00390022
cycle: 17

Station Type Date Time Source
KPDX TAF 2021/02/24 14:06 UTC NOAA

TAF
AMD KPDX 241404Z 2414/2512 VRB03KT P6SM SCT006 BKN025
TEMPO 2414/2417 3SM BR BKN006 BKN025
FM241800 VRB03KT P6SM FEW050 SCT250
FM250300 VRB03KT P6SM SCT140
FM250600 12006KT P6SM OVC150

Example: see airport list